sensor_id;sensor_type;location;lat;lon;timestamp;temperature;humidity
45060;DHT22;30799;49.060;9.312;2023-05-07T00:01:17;20.90;64.10
45060;DHT22;30799;49.060;9.312;2023-05-07T00:03:45;20.90;64.20
45060;DHT22;30799;49.060;9.312;2023-05-07T00:06:13;20.90;64.20
45060;DHT22;30799;49.060;9.312;2023-05-07T00:08:39;20.90;64.20
45060;DHT22;30799;49.060;9.312;2023-05-07T00:11:06;20.90;64.20
45060;DHT22;30799;49.060;9.312;2023-05-07T00:13:32;20.90;64.30
45060;DHT22;30799;49.060;9.312;2023-05-07T00:16:02;20.90;64.30
45060;DHT22;30799;49.060;9.312;2023-05-07T00:18:29;20.90;64.30
45060;DHT22;30799;49.060;9.312;2023-05-07T00:20:56;20.90;64.20
45060;DHT22;30799;49.060;9.312;2023-05-07T00:23:23;20.90;64.20
45060;DHT22;30799;49.060;9.312;2023-05-07T00:25:49;20.90;64.30
45060;DHT22;30799;49.060;9.312;2023-05-07T00:28:16;20.90;64.30
45060;DHT22;30799;49.060;9.312;2023-05-07T00:30:43;20.90;64.30
45060;DHT22;30799;49.060;9.312;2023-05-07T00:33:09;20.90;64.40
45060;DHT22;30799;49.060;9.312;2023-05-07T00:35:36;20.90;64.30
45060;DHT22;30799;49.060;9.312;2023-05-07T00:38:03;20.90;64.40
45060;DHT22;30799;49.060;9.312;2023-05-07T00:40:29;20.90;64.40
45060;DHT22;30799;49.060;9.312;2023-05-07T00:42:56;20.90;64.40
45060;DHT22;30799;49.060;9.312;2023-05-07T00:45:28;20.90;64.50
45060;DHT22;30799;49.060;9.312;2023-05-07T00:47:59;20.90;64.60
45060;DHT22;30799;49.060;9.312;2023-05-07T00:50:26;20.90;64.60
45060;DHT22;30799;49.060;9.312;2023-05-07T00:52:54;20.90;64.50
45060;DHT22;30799;49.060;9.312;2023-05-07T00:55:22;20.90;64.50
45060;DHT22;30799;49.060;9.312;2023-05-07T00:57:50;20.90;64.60
45060;DHT22;30799;49.060;9.312;2023-05-07T01:00:17;20.90;64.60
45060;DHT22;30799;49.060;9.312;2023-05-07T01:02:44;20.80;64.50
45060;DHT22;30799;49.060;9.312;2023-05-07T01:05:16;20.80;64.60
45060;DHT22;30799;49.060;9.312;2023-05-07T01:07:44;20.80;64.60
45060;DHT22;30799;49.060;9.312;2023-05-07T01:10:12;20.80;64.50
45060;DHT22;30799;49.060;9.312;2023-05-07T01:12:40;20.90;64.70
45060;DHT22;30799;49.060;9.312;2023-05-07T01:15:08;20.80;64.60
45060;DHT22;30799;49.060;9.312;2023-05-07T01:17:41;20.90;64.60
45060;DHT22;30799;49.060;9.312;2023-05-07T01:20:08;20.80;64.60
45060;DHT22;30799;49.060;9.312;2023-05-07T01:22:38;20.80;64.60
45060;DHT22;30799;49.060;9.312;2023-05-07T01:25:06;20.80;64.50
45060;DHT22;30799;49.060;9.312;2023-05-07T01:27:34;20.80;64.50
45060;DHT22;30799;49.060;9.312;2023-05-07T01:30:02;20.80;64.50
45060;DHT22;30799;49.060;9.312;2023-05-07T01:33:19;20.80;64.50
45060;DHT22;30799;49.060;9.312;2023-05-07T01:35:30;20.90;64.60
45060;DHT22;30799;49.060;9.312;2023-05-07T01:37:58;20.80;64.60
45060;DHT22;30799;49.060;9.312;2023-05-07T01:40:25;20.90;64.70
45060;DHT22;30799;49.060;9.312;2023-05-07T01:42:54;20.80;64.60
45060;DHT22;30799;49.060;9.312;2023-05-07T01:45:21;20.90;64.70
45060;DHT22;30799;49.060;9.312;2023-05-07T01:47:48;20.80;64.50
45060;DHT22;30799;49.060;9.312;2023-05-07T01:50:17;20.80;64.50
45060;DHT22;30799;49.060;9.312;2023-05-07T01:52:44;20.80;64.60
45060;DHT22;30799;49.060;9.312;2023-05-07T01:55:11;20.80;64.60
45060;DHT22;30799;49.060;9.312;2023-05-07T01:57:38;20.80;64.60
45060;DHT22;30799;49.060;9.312;2023-05-07T02:00:05;20.80;64.70
45060;DHT22;30799;49.060;9.312;2023-05-07T02:02:32;20.80;64.70
45060;DHT22;30799;49.060;9.312;2023-05-07T02:04:59;20.80;64.70
45060;DHT22;30799;49.060;9.312;2023-05-07T02:07:27;20.80;64.70
45060;DHT22;30799;49.060;9.312;2023-05-07T02:09:54;20.80;64.70
45060;DHT22;30799;49.060;9.312;2023-05-07T02:12:22;20.80;64.80
45060;DHT22;30799;49.060;9.312;2023-05-07T02:14:49;20.80;64.80
45060;DHT22;30799;49.060;9.312;2023-05-07T02:17:16;20.80;64.80
45060;DHT22;30799;49.060;9.312;2023-05-07T02:19:42;20.80;64.90
45060;DHT22;30799;49.060;9.312;2023-05-07T02:22:10;20.80;64.80
45060;DHT22;30799;49.060;9.312;2023-05-07T02:24:36;20.80;64.90
45060;DHT22;30799;49.060;9.312;2023-05-07T02:27:03;20.80;64.80
45060;DHT22;30799;49.060;9.312;2023-05-07T02:29:30;20.80;65.60
45060;DHT22;30799;49.060;9.312;2023-05-07T02:31:56;20.80;64.80
45060;DHT22;30799;49.060;9.312;2023-05-07T02:34:23;20.80;64.80
45060;DHT22;30799;49.060;9.312;2023-05-07T02:36:50;20.80;64.80
45060;DHT22;30799;49.060;9.312;2023-05-07T02:39:16;20.80;64.80
45060;DHT22;30799;49.060;9.312;2023-05-07T02:41:43;20.80;65.00
45060;DHT22;30799;49.060;9.312;2023-05-07T02:44:09;20.80;64.90
45060;DHT22;30799;49.060;9.312;2023-05-07T02:46:36;20.80;64.90
45060;DHT22;30799;49.060;9.312;2023-05-07T02:49:03;20.80;65.00
45060;DHT22;30799;49.060;9.312;2023-05-07T02:51:30;20.80;64.90
45060;DHT22;30799;49.060;9.312;2023-05-07T02:53:57;20.70;65.10
45060;DHT22;30799;49.060;9.312;2023-05-07T02:56:26;20.80;65.10
45060;DHT22;30799;49.060;9.312;2023-05-07T02:58:53;20.80;65.10
45060;DHT22;30799;49.060;9.312;2023-05-07T03:01:19;20.70;64.90
45060;DHT22;30799;49.060;9.312;2023-05-07T03:03:47;20.70;64.80
45060;DHT22;30799;49.060;9.312;2023-05-07T03:06:14;20.80;64.80
45060;DHT22;30799;49.060;9.312;2023-05-07T03:08:40;20.70;64.90
45060;DHT22;30799;49.060;9.312;2023-05-07T03:11:07;20.80;64.90
45060;DHT22;30799;49.060;9.312;2023-05-07T03:13:34;20.70;64.80
45060;DHT22;30799;49.060;9.312;2023-05-07T03:16:00;20.80;64.90
45060;DHT22;30799;49.060;9.312;2023-05-07T03:18:27;20.70;64.80
45060;DHT22;30799;49.060;9.312;2023-05-07T03:20:54;20.70;64.80
45060;DHT22;30799;49.060;9.312;2023-05-07T03:23:20;20.70;64.80
45060;DHT22;30799;49.060;9.312;2023-05-07T03:25:50;20.70;64.90
45060;DHT22;30799;49.060;9.312;2023-05-07T03:28:16;20.80;64.90
45060;DHT22;30799;49.060;9.312;2023-05-07T03:30:43;20.70;64.90
45060;DHT22;30799;49.060;9.312;2023-05-07T03:33:10;20.80;64.90
45060;DHT22;30799;49.060;9.312;2023-05-07T03:35:36;20.70;64.80
45060;DHT22;30799;49.060;9.312;2023-05-07T03:38:03;20.70;64.80
45060;DHT22;30799;49.060;9.312;2023-05-07T03:40:29;20.70;64.80
45060;DHT22;30799;49.060;9.312;2023-05-07T03:42:56;20.70;64.80
45060;DHT22;30799;49.060;9.312;2023-05-07T03:45:23;20.70;64.90
45060;DHT22;30799;49.060;9.312;2023-05-07T03:47:49;20.70;64.80
45060;DHT22;30799;49.060;9.312;2023-05-07T03:50:16;20.70;64.90
45060;DHT22;30799;49.060;9.312;2023-05-07T03:52:43;20.70;65.00
45060;DHT22;30799;49.060;9.312;2023-05-07T03:55:09;20.70;65.00
45060;DHT22;30799;49.060;9.312;2023-05-07T03:57:36;20.70;65.00
45060;DHT22;30799;49.060;9.312;2023-05-07T04:00:03;20.70;65.10
45060;DHT22;30799;49.060;9.312;2023-05-07T04:02:30;20.70;65.10
45060;DHT22;30799;49.060;9.312;2023-05-07T04:04:57;20.70;65.10
45060;DHT22;30799;49.060;9.312;2023-05-07T04:07:24;20.70;65.00
45060;DHT22;30799;49.060;9.312;2023-05-07T04:09:50;20.70;64.90
45060;DHT22;30799;49.060;9.312;2023-05-07T04:12:17;20.70;65.00
45060;DHT22;30799;49.060;9.312;2023-05-07T04:14:44;20.70;65.10
45060;DHT22;30799;49.060;9.312;2023-05-07T04:17:11;20.70;65.20
45060;DHT22;30799;49.060;9.312;2023-05-07T04:19:38;20.70;65.10
45060;DHT22;30799;49.060;9.312;2023-05-07T04:22:04;20.70;65.00
45060;DHT22;30799;49.060;9.312;2023-05-07T04:24:32;20.70;65.00
45060;DHT22;30799;49.060;9.312;2023-05-07T04:26:59;20.70;64.90
45060;DHT22;30799;49.060;9.312;2023-05-07T04:29:26;20.70;64.90
45060;DHT22;30799;49.060;9.312;2023-05-07T04:31:52;20.70;64.80
45060;DHT22;30799;49.060;9.312;2023-05-07T04:34:19;20.70;64.90
45060;DHT22;30799;49.060;9.312;2023-05-07T04:36:47;20.70;64.80
45060;DHT22;30799;49.060;9.312;2023-05-07T04:39:14;20.70;64.70
45060;DHT22;30799;49.060;9.312;2023-05-07T04:41:41;20.40;58.50
45060;DHT22;30799;49.060;9.312;2023-05-07T04:44:08;19.50;58.40
45060;DHT22;30799;49.060;9.312;2023-05-07T04:46:35;19.00;59.50
45060;DHT22;30799;49.060;9.312;2023-05-07T04:49:02;18.90;59.80
45060;DHT22;30799;49.060;9.312;2023-05-07T04:51:29;19.20;60.50
45060;DHT22;30799;49.060;9.312;2023-05-07T04:53:56;19.70;59.80
45060;DHT22;30799;49.060;9.312;2023-05-07T04:56:23;19.90;60.10
45060;DHT22;30799;49.060;9.312;2023-05-07T04:58:49;20.10;60.50
45060;DHT22;30799;49.060;9.312;2023-05-07T05:01:16;20.20;60.30
45060;DHT22;30799;49.060;9.312;2023-05-07T05:03:43;20.30;60.30
45060;DHT22;30799;49.060;9.312;2023-05-07T05:06:10;20.40;60.40
45060;DHT22;30799;49.060;9.312;2023-05-07T05:08:36;20.40;60.50
45060;DHT22;30799;49.060;9.312;2023-05-07T05:11:03;20.40;60.60
45060;DHT22;30799;49.060;9.312;2023-05-07T05:13:30;20.50;60.80
45060;DHT22;30799;49.060;9.312;2023-05-07T05:15:56;20.50;60.90
45060;DHT22;30799;49.060;9.312;2023-05-07T05:18:23;20.50;61.30
45060;DHT22;30799;49.060;9.312;2023-05-07T05:20:51;20.60;61.50
45060;DHT22;30799;49.060;9.312;2023-05-07T05:23:18;20.60;61.70
45060;DHT22;30799;49.060;9.312;2023-05-07T05:25:44;20.60;61.90
45060;DHT22;30799;49.060;9.312;2023-05-07T05:28:11;20.60;61.90
45060;DHT22;30799;49.060;9.312;2023-05-07T05:30:39;20.70;61.80
45060;DHT22;30799;49.060;9.312;2023-05-07T05:33:05;20.70;62.10
45060;DHT22;30799;49.060;9.312;2023-05-07T05:35:32;20.70;61.90
45060;DHT22;30799;49.060;9.312;2023-05-07T05:37:59;20.70;62.00
45060;DHT22;30799;49.060;9.312;2023-05-07T05:40:25;20.70;62.30
45060;DHT22;30799;49.060;9.312;2023-05-07T05:42:52;20.70;62.10
45060;DHT22;30799;49.060;9.312;2023-05-07T05:45:18;20.70;62.10
45060;DHT22;30799;49.060;9.312;2023-05-07T05:47:45;20.70;62.00
45060;DHT22;30799;49.060;9.312;2023-05-07T05:50:12;20.70;62.20
45060;DHT22;30799;49.060;9.312;2023-05-07T05:52:39;20.80;62.50
45060;DHT22;30799;49.060;9.312;2023-05-07T05:55:07;20.80;62.30
45060;DHT22;30799;49.060;9.312;2023-05-07T05:57:34;19.90;59.80
45060;DHT22;30799;49.060;9.312;2023-05-07T06:00:01;19.30;61.30
45060;DHT22;30799;49.060;9.312;2023-05-07T06:02:29;19.00;62.40
45060;DHT22;30799;49.060;9.312;2023-05-07T06:04:55;18.90;63.60
45060;DHT22;30799;49.060;9.312;2023-05-07T06:07:22;19.40;62.40
45060;DHT22;30799;49.060;9.312;2023-05-07T06:09:49;19.80;61.40
45060;DHT22;30799;49.060;9.312;2023-05-07T06:12:15;20.00;60.70
45060;DHT22;30799;49.060;9.312;2023-05-07T06:14:45;20.20;60.40
45060;DHT22;30799;49.060;9.312;2023-05-07T06:17:12;20.40;60.40
45060;DHT22;30799;49.060;9.312;2023-05-07T06:19:38;20.40;60.50
45060;DHT22;30799;49.060;9.312;2023-05-07T06:22:05;20.50;60.70
45060;DHT22;30799;49.060;9.312;2023-05-07T06:24:31;20.60;60.80
45060;DHT22;30799;49.060;9.312;2023-05-07T06:26:58;20.60;61.20
45060;DHT22;30799;49.060;9.312;2023-05-07T06:29:25;20.60;61.10
45060;DHT22;30799;49.060;9.312;2023-05-07T06:31:56;20.60;61.10
45060;DHT22;30799;49.060;9.312;2023-05-07T06:34:23;20.70;61.20
45060;DHT22;30799;49.060;9.312;2023-05-07T06:36:50;20.70;61.30
45060;DHT22;30799;49.060;9.312;2023-05-07T06:39:16;20.70;61.50
45060;DHT22;30799;49.060;9.312;2023-05-07T06:41:43;20.70;61.70
45060;DHT22;30799;49.060;9.312;2023-05-07T06:44:10;20.80;61.70
45060;DHT22;30799;49.060;9.312;2023-05-07T06:46:36;20.80;61.80
45060;DHT22;30799;49.060;9.312;2023-05-07T06:49:03;20.80;61.80
45060;DHT22;30799;49.060;9.312;2023-05-07T06:51:30;20.80;61.90
45060;DHT22;30799;49.060;9.312;2023-05-07T06:53:56;20.80;62.00
45060;DHT22;30799;49.060;9.312;2023-05-07T06:56:23;20.80;62.10
45060;DHT22;30799;49.060;9.312;2023-05-07T06:58:50;20.80;62.10
45060;DHT22;30799;49.060;9.312;2023-05-07T07:01:17;20.80;62.20
45060;DHT22;30799;49.060;9.312;2023-05-07T07:03:44;20.80;62.20
45060;DHT22;30799;49.060;9.312;2023-05-07T07:06:10;20.80;62.20
45060;DHT22;30799;49.060;9.312;2023-05-07T07:08:37;20.90;62.60
45060;DHT22;30799;49.060;9.312;2023-05-07T07:11:05;20.90;62.50
45060;DHT22;30799;49.060;9.312;2023-05-07T07:13:32;20.90;62.10
45060;DHT22;30799;49.060;9.312;2023-05-07T07:15:59;20.60;62.30
45060;DHT22;30799;49.060;9.312;2023-05-07T07:18:26;20.40;62.70
45060;DHT22;30799;49.060;9.312;2023-05-07T07:20:53;20.30;62.40
45060;DHT22;30799;49.060;9.312;2023-05-07T07:23:20;20.40;62.90
45060;DHT22;30799;49.060;9.312;2023-05-07T07:25:46;20.50;62.60
45060;DHT22;30799;49.060;9.312;2023-05-07T07:28:13;20.60;62.40
45060;DHT22;30799;49.060;9.312;2023-05-07T07:30:40;20.70;62.20
45060;DHT22;30799;49.060;9.312;2023-05-07T07:33:06;20.70;62.10
45060;DHT22;30799;49.060;9.312;2023-05-07T07:35:33;20.80;62.30
45060;DHT22;30799;49.060;9.312;2023-05-07T07:38:00;20.80;62.40
45060;DHT22;30799;49.060;9.312;2023-05-07T07:40:27;20.80;62.90
45060;DHT22;30799;49.060;9.312;2023-05-07T07:42:54;20.80;62.90
45060;DHT22;30799;49.060;9.312;2023-05-07T07:45:21;20.80;62.80
45060;DHT22;30799;49.060;9.312;2023-05-07T07:47:47;20.80;62.80
45060;DHT22;30799;49.060;9.312;2023-05-07T07:50:14;20.90;62.90
45060;DHT22;30799;49.060;9.312;2023-05-07T07:52:57;20.90;63.10
45060;DHT22;30799;49.060;9.312;2023-05-07T07:55:24;20.90;63.20
45060;DHT22;30799;49.060;9.312;2023-05-07T07:57:50;20.90;63.30
45060;DHT22;30799;49.060;9.312;2023-05-07T08:00:17;20.90;63.40
45060;DHT22;30799;49.060;9.312;2023-05-07T08:02:44;20.90;63.40
45060;DHT22;30799;49.060;9.312;2023-05-07T08:05:11;20.90;63.50
45060;DHT22;30799;49.060;9.312;2023-05-07T08:07:38;21.00;63.60
45060;DHT22;30799;49.060;9.312;2023-05-07T08:10:04;20.90;63.60
45060;DHT22;30799;49.060;9.312;2023-05-07T08:12:31;20.90;63.70
45060;DHT22;30799;49.060;9.312;2023-05-07T08:14:58;20.90;63.70
45060;DHT22;30799;49.060;9.312;2023-05-07T08:17:24;21.00;63.80
45060;DHT22;30799;49.060;9.312;2023-05-07T08:19:51;20.90;63.70
45060;DHT22;30799;49.060;9.312;2023-05-07T08:22:18;21.00;63.80
45060;DHT22;30799;49.060;9.312;2023-05-07T08:24:44;21.00;63.80
45060;DHT22;30799;49.060;9.312;2023-05-07T08:27:11;21.00;63.60
45060;DHT22;30799;49.060;9.312;2023-05-07T08:29:38;21.00;63.70
45060;DHT22;30799;49.060;9.312;2023-05-07T08:32:04;21.00;63.60
45060;DHT22;30799;49.060;9.312;2023-05-07T08:34:31;21.00;63.40
45060;DHT22;30799;49.060;9.312;2023-05-07T08:36:58;21.00;63.80
45060;DHT22;30799;49.060;9.312;2023-05-07T08:39:24;21.00;64.10
45060;DHT22;30799;49.060;9.312;2023-05-07T08:41:55;21.00;63.90
45060;DHT22;30799;49.060;9.312;2023-05-07T08:44:26;21.00;63.80
45060;DHT22;30799;49.060;9.312;2023-05-07T08:46:56;21.00;63.90
45060;DHT22;30799;49.060;9.312;2023-05-07T08:49:23;21.00;63.90
45060;DHT22;30799;49.060;9.312;2023-05-07T08:51:49;21.00;63.90
45060;DHT22;30799;49.060;9.312;2023-05-07T08:54:16;21.00;64.00
45060;DHT22;30799;49.060;9.312;2023-05-07T08:56:44;21.10;64.20
45060;DHT22;30799;49.060;9.312;2023-05-07T08:59:11;21.00;64.10
45060;DHT22;30799;49.060;9.312;2023-05-07T09:01:37;21.10;64.10
45060;DHT22;30799;49.060;9.312;2023-05-07T09:04:05;21.00;64.10
45060;DHT22;30799;49.060;9.312;2023-05-07T09:06:33;21.00;64.10
45060;DHT22;30799;49.060;9.312;2023-05-07T09:09:01;21.00;64.10
45060;DHT22;30799;49.060;9.312;2023-05-07T09:11:27;21.00;64.10
45060;DHT22;30799;49.060;9.312;2023-05-07T09:13:55;21.10;64.10
45060;DHT22;30799;49.060;9.312;2023-05-07T09:16:23;21.10;64.20
45060;DHT22;30799;49.060;9.312;2023-05-07T09:18:54;21.10;64.20
45060;DHT22;30799;49.060;9.312;2023-05-07T09:21:21;21.10;64.30
45060;DHT22;30799;49.060;9.312;2023-05-07T09:23:53;21.10;64.30
45060;DHT22;30799;49.060;9.312;2023-05-07T09:26:24;21.10;64.90
45060;DHT22;30799;49.060;9.312;2023-05-07T09:28:51;21.00;64.10
45060;DHT22;30799;49.060;9.312;2023-05-07T09:31:18;21.00;63.40
45060;DHT22;30799;49.060;9.312;2023-05-07T09:33:47;20.90;62.70
45060;DHT22;30799;49.060;9.312;2023-05-07T09:36:13;20.90;62.80
45060;DHT22;30799;49.060;9.312;2023-05-07T09:38:40;20.90;62.70
45060;DHT22;30799;49.060;9.312;2023-05-07T09:41:09;20.90;62.50
45060;DHT22;30799;49.060;9.312;2023-05-07T09:43:38;20.90;62.60
45060;DHT22;30799;49.060;9.312;2023-05-07T09:46:14;20.90;62.60
45060;DHT22;30799;49.060;9.312;2023-05-07T09:48:42;21.00;62.20
45060;DHT22;30799;49.060;9.312;2023-05-07T09:51:23;21.00;62.20
45060;DHT22;30799;49.060;9.312;2023-05-07T09:53:52;21.10;62.10
45060;DHT22;30799;49.060;9.312;2023-05-07T09:56:20;21.10;62.30
45060;DHT22;30799;49.060;9.312;2023-05-07T09:58:48;21.10;62.40
45060;DHT22;30799;49.060;9.312;2023-05-07T10:01:17;21.00;62.40
45060;DHT22;30799;49.060;9.312;2023-05-07T10:03:45;21.10;62.50
45060;DHT22;30799;49.060;9.312;2023-05-07T10:06:13;21.10;62.60
45060;DHT22;30799;49.060;9.312;2023-05-07T10:08:42;21.10;62.60
45060;DHT22;30799;49.060;9.312;2023-05-07T10:11:09;21.10;62.70
45060;DHT22;30799;49.060;9.312;2023-05-07T10:13:36;21.10;62.80
45060;DHT22;30799;49.060;9.312;2023-05-07T10:16:04;21.10;62.80
45060;DHT22;30799;49.060;9.312;2023-05-07T10:18:32;21.10;62.80
45060;DHT22;30799;49.060;9.312;2023-05-07T10:21:07;21.10;62.90
45060;DHT22;30799;49.060;9.312;2023-05-07T10:23:35;21.20;63.10
45060;DHT22;30799;49.060;9.312;2023-05-07T10:26:04;21.10;63.00
45060;DHT22;30799;49.060;9.312;2023-05-07T10:28:43;21.10;63.00
45060;DHT22;30799;49.060;9.312;2023-05-07T10:33:46;21.10;62.80
45060;DHT22;30799;49.060;9.312;2023-05-07T10:36:13;21.20;63.10
45060;DHT22;30799;49.060;9.312;2023-05-07T10:38:40;21.20;63.10
45060;DHT22;30799;49.060;9.312;2023-05-07T10:41:07;21.20;63.60
45060;DHT22;30799;49.060;9.312;2023-05-07T10:43:45;21.20;63.90
45060;DHT22;30799;49.060;9.312;2023-05-07T10:46:14;21.30;64.20
45060;DHT22;30799;49.060;9.312;2023-05-07T10:51:27;21.30;64.30
45060;DHT22;30799;49.060;9.312;2023-05-07T10:56:42;21.40;64.40
45060;DHT22;30799;49.060;9.312;2023-05-07T11:02:01;21.40;64.50
45060;DHT22;30799;49.060;9.312;2023-05-07T11:04:33;21.50;64.40
45060;DHT22;30799;49.060;9.312;2023-05-07T11:09:56;21.50;64.60
45060;DHT22;30799;49.060;9.312;2023-05-07T11:15:11;21.50;64.80
45060;DHT22;30799;49.060;9.312;2023-05-07T11:17:55;21.50;64.70
45060;DHT22;30799;49.060;9.312;2023-05-07T11:20:48;21.50;64.70
45060;DHT22;30799;49.060;9.312;2023-05-07T11:26:06;21.50;64.60
45060;DHT22;30799;49.060;9.312;2023-05-07T11:28:40;21.50;64.50
45060;DHT22;30799;49.060;9.312;2023-05-07T11:31:08;21.60;64.40
45060;DHT22;30799;49.060;9.312;2023-05-07T11:33:35;21.50;64.30
45060;DHT22;30799;49.060;9.312;2023-05-07T11:36:03;21.50;65.60
45060;DHT22;30799;49.060;9.312;2023-05-07T11:38:34;21.50;64.90
45060;DHT22;30799;49.060;9.312;2023-05-07T11:41:03;21.50;64.70
45060;DHT22;30799;49.060;9.312;2023-05-07T11:43:32;21.50;64.60
45060;DHT22;30799;49.060;9.312;2023-05-07T11:46:10;21.50;64.70
45060;DHT22;30799;49.060;9.312;2023-05-07T11:48:37;21.40;64.70
45060;DHT22;30799;49.060;9.312;2023-05-07T11:51:05;21.40;64.70
45060;DHT22;30799;49.060;9.312;2023-05-07T11:53:41;21.40;64.60
45060;DHT22;30799;49.060;9.312;2023-05-07T11:56:09;21.40;64.60
45060;DHT22;30799;49.060;9.312;2023-05-07T11:58:36;21.40;64.50
45060;DHT22;30799;49.060;9.312;2023-05-07T12:01:03;21.40;64.50
45060;DHT22;30799;49.060;9.312;2023-05-07T12:03:30;21.40;64.40
45060;DHT22;30799;49.060;9.312;2023-05-07T12:06:01;21.40;64.30
45060;DHT22;30799;49.060;9.312;2023-05-07T12:08:28;21.40;64.40
45060;DHT22;30799;49.060;9.312;2023-05-07T12:10:54;21.40;64.00
45060;DHT22;30799;49.060;9.312;2023-05-07T12:13:23;21.40;64.20
45060;DHT22;30799;49.060;9.312;2023-05-07T12:15:55;21.40;64.30
45060;DHT22;30799;49.060;9.312;2023-05-07T12:18:23;21.40;64.00
45060;DHT22;30799;49.060;9.312;2023-05-07T12:20:51;21.40;64.30
45060;DHT22;30799;49.060;9.312;2023-05-07T12:23:18;21.50;64.30
45060;DHT22;30799;49.060;9.312;2023-05-07T12:25:46;21.50;64.00
45060;DHT22;30799;49.060;9.312;2023-05-07T12:28:15;21.50;64.10
45060;DHT22;30799;49.060;9.312;2023-05-07T12:30:43;21.50;64.20
45060;DHT22;30799;49.060;9.312;2023-05-07T12:33:11;21.40;64.30
45060;DHT22;30799;49.060;9.312;2023-05-07T12:35:40;21.40;64.10
45060;DHT22;30799;49.060;9.312;2023-05-07T12:38:15;21.40;64.10
45060;DHT22;30799;49.060;9.312;2023-05-07T12:40:44;21.40;64.10
45060;DHT22;30799;49.060;9.312;2023-05-07T12:43:18;21.40;64.30
45060;DHT22;30799;49.060;9.312;2023-05-07T12:45:47;21.40;64.40
45060;DHT22;30799;49.060;9.312;2023-05-07T12:48:14;21.40;64.30
45060;DHT22;30799;49.060;9.312;2023-05-07T12:50:41;21.40;64.30
45060;DHT22;30799;49.060;9.312;2023-05-07T12:53:11;21.40;64.60
45060;DHT22;30799;49.060;9.312;2023-05-07T12:55:45;21.50;65.10
45060;DHT22;30799;49.060;9.312;2023-05-07T13:00:43;21.50;64.40
45060;DHT22;30799;49.060;9.312;2023-05-07T13:03:11;21.50;64.70
45060;DHT22;30799;49.060;9.312;2023-05-07T13:05:38;21.50;64.20
45060;DHT22;30799;49.060;9.312;2023-05-07T13:08:04;21.40;64.20
45060;DHT22;30799;49.060;9.312;2023-05-07T13:10:32;21.40;64.10
45060;DHT22;30799;49.060;9.312;2023-05-07T13:13:00;21.40;64.30
45060;DHT22;30799;49.060;9.312;2023-05-07T13:15:27;21.40;64.50
45060;DHT22;30799;49.060;9.312;2023-05-07T13:17:53;21.40;64.30
45060;DHT22;30799;49.060;9.312;2023-05-07T13:20:21;21.40;64.50
45060;DHT22;30799;49.060;9.312;2023-05-07T13:22:47;21.40;64.30
45060;DHT22;30799;49.060;9.312;2023-05-07T13:25:14;21.40;64.70
45060;DHT22;30799;49.060;9.312;2023-05-07T13:27:41;21.50;64.70
45060;DHT22;30799;49.060;9.312;2023-05-07T13:30:08;21.60;65.30
45060;DHT22;30799;49.060;9.312;2023-05-07T13:32:35;21.60;64.80
45060;DHT22;30799;49.060;9.312;2023-05-07T13:35:01;21.60;64.70
45060;DHT22;30799;49.060;9.312;2023-05-07T13:37:28;21.60;64.80
45060;DHT22;30799;49.060;9.312;2023-05-07T13:39:55;21.60;65.10
45060;DHT22;30799;49.060;9.312;2023-05-07T13:42:21;21.60;65.30
45060;DHT22;30799;49.060;9.312;2023-05-07T13:44:48;21.60;65.50
45060;DHT22;30799;49.060;9.312;2023-05-07T13:47:15;21.70;65.40
45060;DHT22;30799;49.060;9.312;2023-05-07T13:49:41;21.60;65.60
45060;DHT22;30799;49.060;9.312;2023-05-07T13:52:08;21.70;65.80
45060;DHT22;30799;49.060;9.312;2023-05-07T13:54:35;21.70;65.60
45060;DHT22;30799;49.060;9.312;2023-05-07T13:57:01;21.80;65.60
45060;DHT22;30799;49.060;9.312;2023-05-07T13:59:28;21.70;65.80
45060;DHT22;30799;49.060;9.312;2023-05-07T14:01:54;21.70;65.70
45060;DHT22;30799;49.060;9.312;2023-05-07T14:04:21;21.70;65.90
45060;DHT22;30799;49.060;9.312;2023-05-07T14:06:48;21.70;66.00
45060;DHT22;30799;49.060;9.312;2023-05-07T14:09:14;21.80;66.00
45060;DHT22;30799;49.060;9.312;2023-05-07T14:11:41;21.80;66.00
45060;DHT22;30799;49.060;9.312;2023-05-07T14:14:08;21.70;66.00
45060;DHT22;30799;49.060;9.312;2023-05-07T14:16:37;21.70;66.00
45060;DHT22;30799;49.060;9.312;2023-05-07T14:19:04;21.70;66.10
45060;DHT22;30799;49.060;9.312;2023-05-07T14:21:30;21.70;66.10
45060;DHT22;30799;49.060;9.312;2023-05-07T14:23:57;21.70;66.10
45060;DHT22;30799;49.060;9.312;2023-05-07T14:26:24;21.80;66.20
45060;DHT22;30799;49.060;9.312;2023-05-07T14:28:53;21.80;66.20
45060;DHT22;30799;49.060;9.312;2023-05-07T14:31:21;21.70;66.10
45060;DHT22;30799;49.060;9.312;2023-05-07T14:33:48;21.80;66.30
45060;DHT22;30799;49.060;9.312;2023-05-07T14:36:19;21.80;66.30
45060;DHT22;30799;49.060;9.312;2023-05-07T14:38:51;21.70;66.20
45060;DHT22;30799;49.060;9.312;2023-05-07T14:41:17;21.80;66.40
45060;DHT22;30799;49.060;9.312;2023-05-07T14:43:44;21.60;61.30
45060;DHT22;30799;49.060;9.312;2023-05-07T14:46:17;21.20;60.70
45060;DHT22;30799;49.060;9.312;2023-05-07T14:48:45;20.90;61.90
45060;DHT22;30799;49.060;9.312;2023-05-07T14:51:13;20.80;64.20
45060;DHT22;30799;49.060;9.312;2023-05-07T14:53:44;20.60;63.80
45060;DHT22;30799;49.060;9.312;2023-05-07T14:56:10;20.70;64.90
45060;DHT22;30799;49.060;9.312;2023-05-07T14:58:37;20.60;65.70
45060;DHT22;30799;49.060;9.312;2023-05-07T15:01:04;20.50;65.40
45060;DHT22;30799;49.060;9.312;2023-05-07T15:03:31;20.60;64.70
45060;DHT22;30799;49.060;9.312;2023-05-07T15:05:58;20.50;65.10
45060;DHT22;30799;49.060;9.312;2023-05-07T15:08:24;20.40;66.50
45060;DHT22;30799;49.060;9.312;2023-05-07T15:10:51;20.30;69.30
45060;DHT22;30799;49.060;9.312;2023-05-07T15:13:18;20.20;69.40
45060;DHT22;30799;49.060;9.312;2023-05-07T15:15:45;20.20;68.10
45060;DHT22;30799;49.060;9.312;2023-05-07T15:18:11;20.20;68.10
45060;DHT22;30799;49.060;9.312;2023-05-07T15:20:38;20.20;68.30
45060;DHT22;30799;49.060;9.312;2023-05-07T15:23:06;20.10;68.60
45060;DHT22;30799;49.060;9.312;2023-05-07T15:25:36;20.10;69.30
45060;DHT22;30799;49.060;9.312;2023-05-07T15:28:03;20.00;68.90
45060;DHT22;30799;49.060;9.312;2023-05-07T15:30:30;20.10;68.60
45060;DHT22;30799;49.060;9.312;2023-05-07T15:32:57;20.00;69.60
45060;DHT22;30799;49.060;9.312;2023-05-07T15:35:23;20.00;70.40
45060;DHT22;30799;49.060;9.312;2023-05-07T15:37:52;20.00;71.10
45060;DHT22;30799;49.060;9.312;2023-05-07T15:40:21;20.00;72.60
45060;DHT22;30799;49.060;9.312;2023-05-07T15:42:48;20.10;71.40
45060;DHT22;30799;49.060;9.312;2023-05-07T15:45:15;20.40;70.00
45060;DHT22;30799;49.060;9.312;2023-05-07T15:47:41;20.60;69.10
45060;DHT22;30799;49.060;9.312;2023-05-07T15:50:08;20.80;68.80
45060;DHT22;30799;49.060;9.312;2023-05-07T15:52:35;20.90;68.20
45060;DHT22;30799;49.060;9.312;2023-05-07T15:55:02;20.90;67.50